84°F Temp
75°F Dewpoint
% Humidity
Temperature
8 MPH
13 KM/H
7 KTS
310°
North West

Wind Speed
Mostly Scattered
Clouds
Pressure 1013.52 (hPa) - 29.93 (in)
Visibility 10.0 (mi) - 16.1 (km)

Current Conditions
KPBI
Location 9(mi)
Metar :KPBI 151353Z COR 31007KT 10SM SCT017 SCT180 SCT250 29/24 A2993 RMK AO2 SLP134 T02890244 $
Sun 15th September 09:53 am

Airport
  Metar Aviation API Data Provided by https://www.checkwx.com/ PHP scripts by weather34.com ©2019